Time;durP1;ratioP1;P1;durP2;ratioP2;P2;SDS_P1;SDS_P2;PMS_P1;PMS_P2;Temp;Humidity;BMP_temperature;BMP_pressure;BME280_temperature;BME280_humidity;BME280_pressure;Samples;Min_cycle;Max_cycle;Signal;HPM_P1;HPM_P2
2022/08/23 00:01:49;;;;;;;1.40;1.15;;;19.30;99.90;;;;;;5019977;28;20049;-79
2022/08/23 00:04:28;;;;;;;2.00;1.20;;;19.30;99.90;;;;;;5024866;28;20390;-76
2022/08/23 00:07:01;;;;;;;3.15;1.45;;;19.30;99.90;;;;;;5042282;28;20136;-66
2022/08/23 00:09:28;;;;;;;1.83;1.00;;;19.30;99.90;;;;;;5021844;28;20052;-78
2022/08/23 00:12:03;;;;;;;1.45;1.10;;;19.30;99.90;;;;;;5019159;28;20061;-75
2022/08/23 00:14:33;;;;;;;1.23;1.00;;;19.30;99.90;;;;;;5012155;28;20045;-79
2022/08/23 00:17:01;;;;;;;2.00;1.23;;;19.30;99.90;;;;;;5017266;28;20153;-77
2022/08/23 00:19:29;;;;;;;1.85;1.10;;;19.30;99.90;;;;;;5011227;28;20049;-78
2022/08/23 00:21:56;;;;;;;1.75;1.17;;;19.30;99.90;;;;;;4998074;28;20045;-80
2022/08/23 00:24:23;;;;;;;4.93;1.15;;;19.40;99.90;;;;;;5011414;28;20049;-80
2022/08/23 00:26:55;;;;;;;2.00;1.17;;;19.40;99.90;;;;;;5014851;28;20057;-78
2022/08/23 00:29:24;;;;;;;4.05;1.60;;;19.40;99.90;;;;;;5031132;28;20073;-78
2022/08/23 00:31:51;;;;;;;;;;;19.40;99.90;;;;;;5029542;28;20520;-78
2022/08/23 00:34:18;;;;;;;1.67;0.95;;;19.40;99.90;;;;;;5027918;28;19921;-79
2022/08/23 00:36:45;;;;;;;1.20;0.93;;;19.40;99.90;;;;;;5021030;28;20060;-77
2022/08/23 00:39:12;;;;;;;3.22;1.25;;;19.40;99.90;;;;;;5029291;28;20037;-79
2022/08/23 00:41:39;;;;;;;2.15;1.25;;;19.40;99.90;;;;;;5031108;28;20115;-80
2022/08/23 00:49:42;;;;;;;1.05;0.80;;;19.40;99.90;;;;;;5032218;28;20507;-79
2022/08/23 00:52:30;;;;;;;2.13;1.10;;;19.30;99.90;;;;;;5025618;28;20049;-77
2022/08/23 00:54:57;;;;;;;2.47;1.50;;;19.30;99.90;;;;;;5033439;28;20046;-79
2022/08/23 00:57:24;;;;;;;2.35;1.48;;;19.30;99.90;;;;;;5023961;28;20054;-79
2022/08/23 00:59:51;;;;;;;2.00;1.13;;;19.30;99.90;;;;;;5015019;28;20398;-70
2022/08/23 01:02:18;;;;;;;1.63;1.10;;;19.30;99.90;;;;;;5024340;28;20049;-77
2022/08/23 01:04:55;;;;;;;1.88;1.13;;;19.30;99.90;;;;;;5027596;28;20492;-78
2022/08/23 01:07:28;;;;;;;1.98;1.33;;;19.30;99.90;;;;;;5031461;28;20489;-78
2022/08/23 01:09:56;;;;;;;2.47;1.33;;;19.30;99.90;;;;;;5028889;28;20041;-72
2022/08/23 01:12:36;;;;;;;2.17;1.37;;;19.40;99.90;;;;;;5029227;28;20061;-80
2022/08/23 01:15:09;;;;;;;2.20;1.70;;;19.40;99.90;;;;;;5027932;28;20053;-80
2022/08/23 01:17:55;;;;;;;2.72;1.45;;;19.40;99.90;;;;;;5010819;28;20049;-81
2022/08/23 01:20:23;;;;;;;2.17;1.40;;;19.40;99.90;;;;;;5020826;28;20176;-81
2022/08/23 01:22:59;;;;;;;3.72;1.83;;;19.40;99.90;;;;;;5016406;28;20123;-80
2022/08/23 01:25:27;;;;;;;2.20;1.40;;;19.40;99.90;;;;;;5030892;28;20485;-80
2022/08/23 01:27:56;;;;;;;5.10;2.30;;;19.40;99.90;;;;;;5029970;28;20061;-77
2022/08/23 01:30:24;;;;;;;2.77;2.20;;;19.40;99.90;;;;;;5029987;28;20779;-77
2022/08/23 01:32:54;;;;;;;3.35;1.80;;;19.40;99.90;;;;;;5032400;28;20504;-77
2022/08/23 01:35:23;;;;;;;;;;;19.40;99.90;;;;;;5021408;28;20046;-78
2022/08/23 01:37:54;;;;;;;5.00;1.92;;;19.40;99.90;;;;;;5013546;28;19931;-77
2022/08/23 01:40:20;;;;;;;4.22;2.35;;;19.40;99.90;;;;;;5014616;28;20060;-75
2022/08/23 01:42:48;;;;;;;4.03;2.10;;;19.40;99.90;;;;;;5014868;28;20483;-77
2022/08/23 01:45:15;;;;;;;5.72;2.17;;;19.40;99.90;;;;;;5014750;28;20046;-78
2022/08/23 01:47:42;;;;;;;3.75;2.28;;;19.40;99.90;;;;;;4996945;28;20050;-76
2022/08/23 01:50:10;;;;;;;3.40;2.22;;;19.40;99.90;;;;;;5038044;28;20060;-78
2022/08/23 01:52:37;;;;;;;5.07;2.30;;;19.40;99.90;;;;;;5028937;28;20056;-79
2022/08/23 01:55:12;;;;;;;9.10;3.10;;;19.40;99.90;;;;;;5025428;28;20052;-78
2022/08/23 01:57:40;;;;;;;4.15;2.25;;;19.40;99.90;;;;;;5022641;28;20057;-78
2022/08/23 02:00:07;;;;;;;4.90;2.78;;;19.50;99.90;;;;;;5029434;28;20050;-80
2022/08/23 02:02:34;;;;;;;4.60;2.53;;;19.50;99.90;;;;;;5029014;28;20132;-79
2022/08/23 02:05:01;;;;;;;5.13;3.10;;;19.40;99.90;;;;;;5025253;28;20485;-80
2022/08/23 02:07:28;;;;;;;6.53;3.28;;;19.50;99.90;;;;;;5026947;28;20050;-80
2022/08/23 02:09:55;;;;;;;5.75;3.38;;;19.40;99.90;;;;;;5024645;28;20049;-79
2022/08/23 02:12:22;;;;;;;4.85;3.55;;;19.50;99.90;;;;;;5024207;28;20056;-78
2022/08/23 02:14:49;;;;;;;4.35;3.42;;;19.50;99.90;;;;;;5026001;28;20050;-77
2022/08/23 02:17:16;;;;;;;4.85;3.78;;;19.50;99.90;;;;;;5028460;28;20045;-80
2022/08/23 02:19:43;;;;;;;6.68;3.65;;;19.50;99.90;;;;;;5018292;28;20374;-77
2022/08/23 02:22:10;;;;;;;5.78;4.00;;;19.50;99.90;;;;;;5023049;28;20462;-79
2022/08/23 02:24:42;;;;;;;7.22;5.00;;;19.60;99.90;;;;;;5017449;28;20068;-79
2022/08/23 02:27:09;;;;;;;6.28;4.88;;;19.50;99.90;;;;;;5029342;28;20049;-79
2022/08/23 02:29:36;;;;;;;7.32;5.05;;;19.50;99.90;;;;;;5017329;28;20062;-79
2022/08/23 02:32:05;;;;;;;7.78;5.22;;;19.50;99.90;;;;;;5022706;28;20048;-79
2022/08/23 02:34:32;;;;;;;7.55;5.47;;;19.50;99.90;;;;;;5019037;28;20052;-79
2022/08/23 02:36:59;;;;;;;7.55;5.50;;;19.60;99.90;;;;;;5030610;28;20058;-77
2022/08/23 02:39:26;;;;;;;8.63;5.57;;;19.60;99.90;;;;;;5028643;28;20140;-77
2022/08/23 02:41:53;;;;;;;7.43;6.25;;;19.60;99.90;;;;;;5019650;28;20043;-77
2022/08/23 02:44:20;;;;;;;8.98;6.63;;;19.60;99.90;;;;;;5027118;28;20041;-73
2022/08/23 02:46:47;;;;;;;8.15;6.00;;;19.60;99.90;;;;;;5030891;28;20049;-80
2022/08/23 02:49:14;;;;;;;8.10;7.03;;;19.60;99.90;;;;;;5030163;28;20060;-80
2022/08/23 02:51:41;;;;;;;8.80;7.63;;;19.60;99.90;;;;;;5027654;28;20057;-78
2022/08/23 02:54:08;;;;;;;9.05;7.93;;;19.60;99.90;;;;;;5021798;28;20049;-78
2022/08/23 02:56:35;;;;;;;10.27;8.45;;;19.60;99.90;;;;;;5046500;28;20049;-79
2022/08/23 02:59:03;;;;;;;9.93;6.85;;;19.60;99.90;;;;;;5031882;28;20386;-78
2022/08/23 03:01:33;;;;;;;9.75;7.93;;;19.60;99.90;;;;;;5023516;28;20529;-79
2022/08/23 03:04:00;;;;;;;10.35;8.15;;;19.60;99.90;;;;;;5026090;28;20053;-76
2022/08/23 03:06:27;;;;;;;11.65;8.75;;;19.60;99.90;;;;;;5011770;28;20046;-78
2022/08/23 03:08:54;;;;;;;11.57;8.13;;;19.60;99.90;;;;;;5026577;28;20482;-75
2022/08/23 03:11:22;;;;;;;9.52;7.85;;;19.60;99.90;;;;;;5030799;28;20068;-78
2022/08/23 03:13:49;;;;;;;11.15;8.38;;;19.60;99.90;;;;;;5029854;28;20049;-78
2022/08/23 03:16:16;;;;;;;10.15;7.75;;;19.60;99.90;;;;;;5026307;28;20046;-77
2022/08/23 03:18:43;;;;;;;11.02;8.65;;;19.60;99.90;;;;;;5013883;28;20389;-77
2022/08/23 03:21:11;;;;;;;9.85;7.63;;;19.60;99.90;;;;;;5030907;28;20045;-77
2022/08/23 03:23:38;;;;;;;10.80;7.85;;;19.60;99.90;;;;;;5021801;28;20046;-80
2022/08/23 03:26:06;;;;;;;9.95;8.13;;;19.60;99.90;;;;;;5031403;28;20057;-77
2022/08/23 03:28:34;;;;;;;8.50;7.50;;;19.70;99.90;;;;;;5030287;28;20499;-79
2022/08/23 03:31:01;;;;;;;10.73;8.07;;;19.70;99.90;;;;;;5029398;28;20041;-79
2022/08/23 03:33:28;;;;;;;9.05;7.97;;;19.70;99.90;;;;;;5021956;28;20050;-79
2022/08/23 03:36:02;;;;;;;9.63;7.60;;;19.70;99.90;;;;;;5026668;28;20045;-79
2022/08/23 03:38:29;;;;;;;9.45;7.57;;;19.70;99.90;;;;;;5029661;28;20505;-79
2022/08/23 03:40:56;;;;;;;11.35;8.07;;;19.70;99.90;;;;;;5030561;28;20054;-80
2022/08/23 03:43:23;;;;;;;10.45;8.23;;;19.70;99.90;;;;;;5028137;28;20048;-79
2022/08/23 03:45:50;;;;;;;6.85;5.90;;;19.70;99.90;;;;;;5029467;28;20041;-79
2022/08/23 03:48:17;;;;;;;9.48;6.65;;;19.70;99.90;;;;;;5027774;28;20132;-76
2022/08/23 03:50:44;;;;;;;9.60;7.20;;;19.70;99.90;;;;;;5028803;28;20056;-78
2022/08/23 03:53:11;;;;;;;7.85;6.38;;;19.70;99.90;;;;;;5016332;28;20409;-69
2022/08/23 03:55:39;;;;;;;7.75;6.25;;;19.70;99.90;;;;;;5021016;28;20052;-79
2022/08/23 03:58:09;;;;;;;6.90;6.07;;;19.60;99.90;;;;;;5018704;28;20070;-79
2022/08/23 04:00:36;;;;;;;7.55;6.05;;;19.60;99.90;;;;;;5031506;28;20054;-79
2022/08/23 04:03:03;;;;;;;7.25;5.97;;;19.60;99.90;;;;;;5014262;28;20050;-79
2022/08/23 04:05:30;;;;;;;6.43;5.20;;;19.60;99.90;;;;;;5023387;28;20042;-79
2022/08/23 04:07:57;;;;;;;5.95;4.68;;;19.60;99.90;;;;;;5027743;28;20055;-79
2022/08/23 04:10:24;;;;;;;7.38;5.22;;;19.60;99.90;;;;;;5031023;28;20053;-80
2022/08/23 04:12:53;;;;;;;5.63;4.72;;;19.60;99.90;;;;;;5029504;28;20057;-76
2022/08/23 04:15:21;;;;;;;6.32;4.72;;;19.60;99.90;;;;;;5024621;28;20436;-70
2022/08/23 04:17:47;;;;;;;6.63;4.45;;;19.60;99.90;;;;;;5005687;28;20049;-80
2022/08/23 04:20:14;;;;;;;5.80;4.60;;;19.60;99.90;;;;;;5019308;28;20045;-71
2022/08/23 04:22:41;;;;;;;4.40;4.00;;;19.70;99.90;;;;;;5015561;28;20504;-80
2022/08/23 04:25:11;;;;;;;5.10;3.72;;;19.60;99.90;;;;;;5030419;28;20062;-79
2022/08/23 04:27:58;;;;;;;4.75;3.90;;;19.60;99.90;;;;;;5017951;28;20064;-79
2022/08/23 04:30:26;;;;;;;4.93;4.20;;;19.60;99.90;;;;;;5026433;28;20277;-79
2022/08/23 04:32:52;;;;;;;5.88;4.30;;;19.70;99.90;;;;;;5031390;28;20046;-79
2022/08/23 04:35:21;;;;;;;4.57;4.18;;;19.70;99.90;;;;;;5013802;28;20050;-77
2022/08/23 04:37:48;;;;;;;5.20;4.70;;;19.70;99.90;;;;;;5022210;28;20052;-79
2022/08/23 04:43:00;;;;;;;7.00;5.25;;;19.70;99.90;;;;;;5016067;28;20125;-80
2022/08/23 04:45:27;;;;;;;7.65;6.32;;;19.70;99.90;;;;;;5026887;28;20482;-78
2022/08/23 04:47:54;;;;;;;7.60;6.75;;;19.70;99.90;;;;;;5027767;28;20504;-73
2022/08/23 04:50:21;;;;;;;9.75;6.75;;;19.70;99.90;;;;;;5022973;28;20046;-80
2022/08/23 04:52:48;;;;;;;8.68;7.45;;;19.70;99.90;;;;;;5015337;28;20044;-78
2022/08/23 04:55:15;;;;;;;9.88;8.88;;;19.70;99.90;;;;;;5024979;28;20042;-79
2022/08/23 04:57:42;;;;;;;9.50;8.18;;;19.70;99.90;;;;;;5027929;28;20052;-79
2022/08/23 05:00:11;;;;;;;10.90;8.55;;;19.70;99.90;;;;;;5026921;28;20049;-78
2022/08/23 05:02:38;;;;;;;10.20;8.13;;;19.70;99.90;;;;;;5027742;28;20045;-78
2022/08/23 05:05:06;;;;;;;10.10;7.70;;;19.70;99.90;;;;;;5021300;28;20041;-77
2022/08/23 05:07:33;;;;;;;9.05;7.70;;;19.70;99.90;;;;;;5027016;28;20046;-79
2022/08/23 05:10:11;;;;;;;10.30;7.75;;;19.70;99.90;;;;;;5026595;28;20092;-79
2022/08/23 05:12:38;;;;;;;;;;;19.70;99.90;;;;;;5027116;28;20046;-80
2022/08/23 05:15:05;;;;;;;12.10;7.63;;;19.60;99.90;;;;;;5029117;28;19932;-78
2022/08/23 05:17:32;;;;;;;9.27;8.02;;;19.60;99.90;;;;;;5019891;28;20444;-78
2022/08/23 05:19:59;;;;;;;7.43;6.63;;;19.60;99.90;;;;;;5026661;28;20409;-78
2022/08/23 05:22:26;;;;;;;7.82;6.95;;;19.60;99.90;;;;;;5018690;28;20417;-76
2022/08/23 05:24:53;;;;;;;29.92;26.73;;;19.60;99.90;;;;;;5018517;28;20049;-76
2022/08/23 05:27:20;;;;;;;10.88;9.32;;;19.70;99.90;;;;;;5025054;28;20485;-79
2022/08/23 05:29:48;;;;;;;7.55;6.70;;;19.70;99.90;;;;;;5028892;28;20128;-80
2022/08/23 05:32:15;;;;;;;8.18;6.60;;;19.70;99.90;;;;;;5026876;28;20049;-79
2022/08/23 05:34:42;;;;;;;7.38;5.57;;;19.70;99.90;;;;;;5018990;28;20049;-80
2022/08/23 05:37:09;;;;;;;6.03;5.43;;;19.70;99.90;;;;;;5027891;28;20050;-81
2022/08/23 05:39:36;;;;;;;6.45;5.38;;;19.70;99.90;;;;;;5031150;28;20313;-81
2022/08/23 05:42:05;;;;;;;6.22;5.63;;;19.70;99.90;;;;;;5024111;28;20038;-81
2022/08/23 05:44:31;;;;;;;4.70;3.60;;;19.70;99.90;;;;;;5034005;28;20508;-81
2022/08/23 05:47:05;;;;;;;4.72;4.18;;;19.70;99.90;;;;;;5031175;28;20052;-78
2022/08/23 05:49:37;;;;;;;5.40;4.90;;;19.70;99.90;;;;;;5020164;28;20133;-81
2022/08/23 05:52:09;;;;;;;6.53;4.50;;;19.70;99.90;;;;;;5023802;28;20046;-80
2022/08/23 05:54:36;;;;;;;5.75;4.50;;;19.70;99.90;;;;;;5023625;28;20160;-80
2022/08/23 05:57:04;;;;;;;5.60;4.15;;;19.70;99.90;;;;;;5025221;28;20042;-79
2022/08/23 05:59:31;;;;;;;5.68;4.97;;;19.70;99.90;;;;;;5013644;28;20061;-80
2022/08/23 06:01:58;;;;;;;5.07;4.57;;;19.80;99.90;;;;;;5019479;28;20042;-81
2022/08/23 06:04:25;;;;;;;5.55;4.60;;;19.80;99.90;;;;;;5015989;28;20504;-81
2022/08/23 06:06:55;;;;;;;6.53;5.07;;;19.90;99.90;;;;;;4994968;28;20050;-81
2022/08/23 06:09:22;;;;;;;5.38;4.55;;;19.90;99.90;;;;;;5023891;28;20052;-80
2022/08/23 06:11:49;;;;;;;5.60;5.10;;;19.90;99.90;;;;;;5013259;28;20058;-81
2022/08/23 06:14:16;;;;;;;6.00;5.22;;;19.90;99.90;;;;;;5014797;28;20054;-81
2022/08/23 06:16:45;;;;;;;6.53;5.45;;;19.90;99.90;;;;;;5018639;28;20533;-82
2022/08/23 06:19:13;;;;;;;6.88;5.32;;;20.00;99.90;;;;;;5022523;28;20042;-81
2022/08/23 06:21:40;;;;;;;6.85;5.93;;;20.00;99.90;;;;;;5004670;28;20400;-80
2022/08/23 06:24:07;;;;;;;40.95;35.22;;;20.00;99.90;;;;;;5025734;28;20080;-81
2022/08/23 06:26:37;;;;;;;38.15;34.40;;;20.10;99.90;;;;;;5030414;28;20053;-80
2022/08/23 06:29:06;;;;;;;12.02;10.80;;;20.20;99.90;;;;;;5031428;28;20441;-74
2022/08/23 06:31:48;;;;;;;12.35;9.18;;;20.30;99.90;;;;;;5010758;28;20660;-81
2022/08/23 06:34:17;;;;;;;41.03;37.03;;;20.30;99.90;;;;;;5036772;28;20052;-69
2022/08/23 06:36:48;;;;;;;15.23;13.73;;;20.30;99.90;;;;;;5015583;28;20056;-68
2022/08/23 06:39:16;;;;;;;13.38;11.32;;;20.30;99.90;;;;;;5017421;28;20046;-68
2022/08/23 06:41:43;;;;;;;12.73;11.07;;;20.30;99.90;;;;;;5032677;28;20132;-69
2022/08/23 06:44:10;;;;;;;9.40;8.43;;;20.30;99.90;;;;;;5028258;28;20137;-69
2022/08/23 06:46:37;;;;;;;8.45;7.55;;;20.30;99.90;;;;;;5028844;28;20041;-70
2022/08/23 06:49:05;;;;;;;14.18;8.35;;;20.30;99.90;;;;;;5018235;28;20372;-69
2022/08/23 06:51:38;;;;;;;10.30;8.88;;;20.40;99.90;;;;;;5027775;28;20042;-70
2022/08/23 06:54:07;;;;;;;12.15;8.68;;;20.50;99.90;;;;;;5017527;28;20051;-69
2022/08/23 06:56:35;;;;;;;9.93;8.90;;;20.50;99.90;;;;;;5031499;28;20071;-69
2022/08/23 06:59:05;;;;;;;10.88;8.73;;;20.60;99.90;;;;;;5024757;28;20045;-69
2022/08/23 07:01:43;;;;;;;15.55;9.82;;;20.60;99.90;;;;;;5012446;28;20397;-69
2022/08/23 07:04:13;;;;;;;10.73;9.05;;;20.60;99.90;;;;;;5024242;28;20045;-73
2022/08/23 07:06:40;;;;;;;9.27;8.38;;;20.70;99.90;;;;;;5017849;28;20485;-75
2022/08/23 07:09:07;;;;;;;10.55;8.05;;;20.80;99.90;;;;;;5011869;28;20091;-73
2022/08/23 07:11:34;;;;;;;12.02;8.77;;;20.90;99.90;;;;;;5012449;28;20049;-71
2022/08/23 07:14:05;;;;;;;12.20;8.95;;;21.00;99.90;;;;;;5013315;28;20052;-72
2022/08/23 07:16:33;;;;;;;10.15;8.98;;;21.20;99.90;;;;;;5011712;28;20077;-73
2022/08/23 07:19:00;;;;;;;12.03;9.60;;;21.40;99.90;;;;;;5013137;28;20390;-71
2022/08/23 07:21:27;;;;;;;11.23;8.65;;;21.60;99.90;;;;;;5012677;28;20287;-75
2022/08/23 07:23:54;;;;;;;10.35;9.25;;;21.60;99.90;;;;;;5011576;28;20066;-75
2022/08/23 07:26:21;;;;;;;9.48;8.57;;;21.60;99.90;;;;;;5012471;28;20053;-74
2022/08/23 07:28:49;;;;;;;10.25;8.88;;;21.50;99.90;;;;;;5013304;28;20046;-74
2022/08/23 07:31:27;;;;;;;11.68;9.75;;;21.50;99.90;;;;;;5028043;28;20064;-76
2022/08/23 07:34:01;;;;;;;9.75;8.77;;;21.40;99.90;;;;;;5012969;28;20469;-74
2022/08/23 07:36:45;;;;;;;10.90;9.77;;;21.30;99.90;;;;;;5024733;28;20096;-72
2022/08/23 07:39:12;;;;;;;9.20;8.27;;;21.20;99.90;;;;;;5027880;28;20045;-70
2022/08/23 07:41:40;;;;;;;11.85;10.65;;;21.20;99.90;;;;;;5031644;28;20081;-66
2022/08/23 07:44:08;;;;;;;10.10;7.97;;;21.30;99.90;;;;;;5025218;28;20061;-71
2022/08/23 07:46:37;;;;;;;12.23;8.65;;;21.40;99.90;;;;;;5011847;28;20115;-74
2022/08/23 07:49:32;;;;;;;9.35;7.53;;;21.50;99.90;;;;;;5032025;28;20057;-71
2022/08/23 07:52:02;;;;;;;12.10;7.07;;;21.70;99.90;;;;;;5030793;28;20060;-71
2022/08/23 07:54:39;;;;;;;7.88;6.53;;;21.80;99.90;;;;;;5013236;28;20085;-69
2022/08/23 07:57:28;;;;;;;7.45;5.68;;;22.20;99.90;;;;;;5011492;28;20061;-71
2022/08/23 08:00:00;;;;;;;8.23;5.55;;;22.30;99.90;;;;;;5026574;28;20092;-71
2022/08/23 08:02:47;;;;;;;7.95;4.82;;;22.30;99.90;;;;;;4995493;28;20078;-71
2022/08/23 08:05:15;;;;;;;8.98;4.57;;;22.30;99.90;;;;;;5008615;28;20088;-71
2022/08/23 08:07:56;;;;;;;9.73;4.43;;;22.30;99.90;;;;;;5010955;28;20073;-72
2022/08/23 08:10:23;;;;;;;5.82;4.00;;;22.30;99.90;;;;;;5012632;28;20417;-71
2022/08/23 08:12:56;;;;;;;5.05;4.07;;;22.40;99.90;;;;;;5012252;28;20501;-71
2022/08/23 08:15:43;;;;;;;10.73;4.03;;;22.40;99.90;;;;;;5012719;28;20052;-71
2022/08/23 08:19:04;;;;;;;5.13;3.50;;;22.40;99.90;;;;;;5012514;28;20042;-71
2022/08/23 08:21:34;;;;;;;5.53;2.92;;;22.50;99.90;;;;;;5025806;28;20483;-71
2022/08/23 08:24:01;;;;;;;5.80;3.47;;;22.40;99.90;;;;;;5011858;28;20412;-71
2022/08/23 08:26:28;;;;;;;12.27;3.42;;;22.40;99.90;;;;;;5026593;28;20428;-66
2022/08/23 08:28:55;;;;;;;8.30;3.10;;;22.50;99.90;;;;;;5031209;28;20061;-71
2022/08/23 08:31:46;;;;;;;5.05;3.10;;;22.70;99.90;;;;;;5008174;28;20046;-71
2022/08/23 08:34:22;;;;;;;8.25;3.03;;;22.80;99.90;;;;;;5002358;28;20082;-71
2022/08/23 08:37:15;;;;;;;4.60;2.47;;;22.90;99.90;;;;;;5000425;28;20124;-70
2022/08/23 08:40:02;;;;;;;3.55;2.55;;;23.00;99.90;;;;;;5011789;28;20057;-71
2022/08/23 08:42:43;;;;;;;14.10;3.63;;;23.10;99.90;;;;;;5011039;28;20060;-71
2022/08/23 08:45:31;;;;;;;4.43;2.63;;;23.20;99.90;;;;;;5024183;28;20050;-70
2022/08/23 08:48:14;;;;;;;5.73;2.80;;;23.30;99.90;;;;;;4999194;28;20049;-71
2022/08/23 08:50:59;;;;;;;5.28;3.30;;;23.30;99.90;;;;;;5031859;28;20130;-71
2022/08/23 08:53:36;;;;;;;8.25;4.32;;;23.50;99.90;;;;;;5005574;28;20066;-70
2022/08/23 08:56:29;;;;;;;8.50;4.30;;;23.60;99.90;;;;;;5028091;28;20051;-71
2022/08/23 08:59:00;;;;;;;8.10;3.35;;;23.70;99.90;;;;;;5011056;28;20445;-71
2022/08/23 09:01:27;;;;;;;;;;;23.70;99.90;;;;;;5010497;28;20559;-71
2022/08/23 09:03:54;;;;;;;6.95;4.72;;;23.70;99.90;;;;;;5011065;28;19979;-71
2022/08/23 09:06:44;;;;;;;6.35;5.15;;;23.60;99.90;;;;;;5012000;28;20058;-71
2022/08/23 09:09:23;;;;;;;5.22;4.28;;;23.50;99.90;;;;;;5024760;28;20049;-71
2022/08/23 09:12:16;;;;;;;6.00;3.28;;;23.50;99.90;;;;;;5014108;28;20058;-71
2022/08/23 09:15:08;;;;;;;9.65;4.85;;;23.40;99.90;;;;;;5027778;28;20053;-71
2022/08/23 09:17:51;;;;;;;6.72;3.28;;;23.50;99.90;;;;;;5015453;28;20046;-71
2022/08/23 09:20:23;;;;;;;5.15;2.88;;;23.50;99.90;;;;;;5030665;28;20053;-71
2022/08/23 09:22:59;;;;;;;5.22;3.33;;;23.60;99.90;;;;;;5030016;28;20069;-71
2022/08/23 09:25:25;;;;;;;4.88;2.70;;;23.60;99.90;;;;;;5013866;28;20045;-71
2022/08/23 09:27:52;;;;;;;4.43;2.75;;;23.70;99.90;;;;;;5014148;28;20060;-71
2022/08/23 09:30:19;;;;;;;5.25;2.80;;;23.90;99.90;;;;;;5015962;28;20065;-71
2022/08/23 09:32:49;;;;;;;6.25;3.13;;;23.90;99.90;;;;;;5015447;28;20053;-69
2022/08/23 09:35:31;;;;;;;3.90;3.05;;;24.10;99.90;;;;;;5015172;28;20053;-71
2022/08/23 09:38:05;;;;;;;7.43;3.95;;;24.10;99.90;;;;;;5014631;28;20471;-69
2022/08/23 09:40:37;;;;;;;3.40;2.03;;;24.30;99.90;;;;;;5029351;28;20042;-69
2022/08/23 09:43:15;;;;;;;4.03;2.13;;;24.40;99.90;;;;;;5015053;28;20703;-69
2022/08/23 09:45:53;;;;;;;6.10;3.22;;;24.30;99.90;;;;;;5015167;28;20140;-69
2022/08/23 09:51:41;;;;;;;5.13;2.10;;;24.50;99.90;;;;;;5013690;28;20121;-69
2022/08/23 09:54:21;;;;;;;;;;;24.60;99.90;;;;;;5015770;28;20124;-69
2022/08/23 09:56:49;;;;;;;;;;;24.80;99.90;;;;;;5066699;28;19925;-69
2022/08/23 09:59:34;;;;;;;5.90;1.88;;;25.00;99.90;;;;;;5063150;28;20280;-70
2022/08/23 10:02:01;;;;;;;3.47;2.22;;;25.00;99.90;;;;;;5032983;28;20481;-70
2022/08/23 10:04:44;;;;;;;3.63;1.90;;;25.10;99.90;;;;;;5023218;28;20077;-69
2022/08/23 10:07:27;;;;;;;6.32;1.80;;;25.10;99.90;;;;;;5028834;28;20504;-70
2022/08/23 10:09:55;;;;;;;3.47;1.98;;;25.20;99.90;;;;;;5011987;28;20042;-69
2022/08/23 10:12:35;;;;;;;3.22;1.92;;;25.20;99.90;;;;;;5027421;28;20061;-70
2022/08/23 10:15:46;;;;;;;2.72;2.03;;;25.20;99.90;;;;;;5013124;28;20100;-70
2022/08/23 10:18:45;;;;;;;5.23;2.10;;;25.20;99.90;;;;;;5021240;28;20050;-70
2022/08/23 10:21:38;;;;;;;4.05;1.88;;;25.40;99.90;;;;;;5013930;28;20042;-70
2022/08/23 10:24:23;;;;;;;3.08;1.60;;;25.50;99.90;;;;;;5014330;28;20050;-70
2022/08/23 10:31:02;;;;;;;3.20;1.90;;;25.40;99.90;;;;;;5014201;28;20184;-69
2022/08/23 10:34:03;;;;;;;2.80;2.00;;;25.50;99.90;;;;;;5013974;28;20046;-70
2022/08/23 10:36:44;;;;;;;3.78;1.95;;;25.50;99.90;;;;;;5026450;28;20058;-70
2022/08/23 10:39:29;;;;;;;4.30;1.65;;;25.50;99.90;;;;;;5027895;28;20104;-68
2022/08/23 10:42:30;;;;;;;4.50;1.77;;;25.60;99.90;;;;;;5012197;28;20201;-70
2022/08/23 10:45:16;;;;;;;5.15;1.60;;;25.50;99.90;;;;;;5027709;28;20058;-69
2022/08/23 10:47:52;;;;;;;4.07;1.90;;;25.50;99.90;;;;;;5014539;28;20041;-71
2022/08/23 10:50:19;;;;;;;4.00;1.90;;;25.30;99.90;;;;;;5032736;28;20057;-70
2022/08/23 10:53:07;;;;;;;2.70;1.70;;;25.30;99.90;;;;;;5030337;28;20056;-70
2022/08/23 10:55:53;;;;;;;2.78;1.58;;;25.30;99.90;;;;;;5041772;28;20538;-72
2022/08/23 10:58:25;;;;;;;2.22;1.50;;;25.40;99.90;;;;;;5033646;28;20060;-70
2022/08/23 11:00:56;;;;;;;2.83;1.63;;;25.50;99.90;;;;;;5032580;28;20053;-70
2022/08/23 11:03:29;;;;;;;3.50;1.73;;;25.70;99.90;;;;;;5030130;28;20045;-70
2022/08/23 11:06:34;;;;;;;2.88;1.40;;;25.90;99.90;;;;;;5033282;28;20046;-70
2022/08/23 11:09:14;;;;;;;1.92;1.30;;;26.10;99.90;;;;;;4992339;28;20470;-70
2022/08/23 11:11:59;;;;;;;2.72;1.70;;;26.10;99.90;;;;;;4993421;28;20081;-70
2022/08/23 11:14:40;;;;;;;2.22;1.35;;;26.10;99.90;;;;;;4993666;28;20501;-69
2022/08/23 11:17:10;;;;;;;2.70;1.30;;;26.20;99.90;;;;;;4992680;28;20054;-67
2022/08/23 11:20:01;;;;;;;2.92;1.30;;;26.30;99.90;;;;;;4993012;28;20059;-70
2022/08/23 11:22:30;;;;;;;2.40;1.58;;;26.30;99.90;;;;;;5008325;28;20056;-69
2022/08/23 11:25:01;;;;;;;;;;;26.50;99.90;;;;;;5011842;28;20045;-70
2022/08/23 11:27:37;;;;;;;3.42;1.55;;;26.60;99.90;;;;;;5027791;28;19925;-69
2022/08/23 11:30:33;;;;;;;5.15;1.63;;;26.80;99.90;;;;;;5028188;28;20383;-70
2022/08/23 11:33:21;;;;;;;2.30;1.10;;;27.00;99.90;;;;;;5014077;28;20427;-71
2022/08/23 11:35:53;;;;;;;2.75;1.80;;;27.00;99.90;;;;;;5028048;28;20054;-69
2022/08/23 11:38:42;;;;;;;2.75;1.30;;;27.10;99.90;;;;;;5011272;28;20057;-72
2022/08/23 11:41:18;;;;;;;3.60;1.30;;;27.30;99.90;;;;;;5012243;28;20049;-70
2022/08/23 11:44:12;;;;;;;4.47;1.42;;;27.10;99.90;;;;;;5012888;28;20056;-70
2022/08/23 11:46:58;;;;;;;3.65;1.27;;;27.10;99.90;;;;;;5025149;28;20493;-70
2022/08/23 11:49:28;;;;;;;5.20;2.10;;;27.20;99.90;;;;;;5013132;28;20042;-70
2022/08/23 11:52:15;;;;;;;6.00;1.60;;;27.20;99.90;;;;;;5012628;28;20046;-70
2022/08/23 11:55:04;;;;;;;2.35;1.25;;;27.40;99.90;;;;;;5015023;28;20058;-71
2022/08/23 11:57:49;;;;;;;3.45;1.30;;;27.30;99.90;;;;;;5028612;28;20088;-70
2022/08/23 12:00:20;;;;;;;3.35;1.35;;;27.30;99.90;;;;;;5032621;28;20049;-70
2022/08/23 12:03:08;;;;;;;5.20;1.70;;;27.40;99.90;;;;;;5016268;28;20500;-70
2022/08/23 12:05:41;;;;;;;3.65;1.40;;;27.30;99.90;;;;;;5031327;28;20055;-70
2022/08/23 12:08:08;;;;;;;5.10;1.40;;;27.30;99.90;;;;;;5016470;28;20054;-69
2022/08/23 12:10:41;;;;;;;7.05;2.97;;;27.20;99.90;;;;;;5011984;28;20060;-70
2022/08/23 12:13:17;;;;;;;3.15;1.63;;;27.10;99.90;;;;;;5012187;28;20054;-70
2022/08/23 12:16:12;;;;;;;2.50;1.30;;;27.00;99.90;;;;;;5012246;28;20500;-71
2022/08/23 12:18:49;;;;;;;1.77;1.17;;;26.80;99.90;;;;;;5012826;28;20042;-70
2022/08/23 12:21:30;;;;;;;2.80;1.27;;;26.70;99.90;;;;;;5022005;28;20515;-71
2022/08/23 12:23:59;;;;;;;2.78;1.30;;;26.50;99.90;;;;;;5015667;28;21754;-70
2022/08/23 12:26:38;;;;;;;2.63;1.30;;;26.60;99.90;;;;;;5027482;28;20045;-71
2022/08/23 12:29:45;;;;;;;8.45;7.65;;;26.50;99.90;;;;;;5015501;28;20046;-72
2022/08/23 12:32:23;;;;;;;10.60;9.38;;;26.50;99.90;;;;;;5026157;28;20045;-74
2022/08/23 12:35:06;;;;;;;12.50;11.18;;;26.70;99.90;;;;;;5009668;28;20196;-64
2022/08/23 12:37:35;;;;;;;9.18;6.57;;;26.80;99.90;;;;;;5015129;28;20049;-67
2022/08/23 12:40:06;;;;;;;3.92;1.67;;;27.00;99.90;;;;;;5009189;28;20592;-77
2022/08/23 12:42:35;;;;;;;1.88;1.10;;;27.10;99.90;;;;;;5011379;28;20444;-76
2022/08/23 12:45:19;;;;;;;3.63;1.10;;;27.10;99.90;;;;;;5012705;28;20096;-74
2022/08/23 12:47:57;;;;;;;2.38;1.00;;;27.00;99.90;;;;;;5015356;28;20057;-71
2022/08/23 12:50:27;;;;;;;2.40;1.00;;;26.90;99.90;;;;;;5006651;28;20413;-68
2022/08/23 12:53:15;;;;;;;10.20;9.00;;;26.80;99.90;;;;;;5010140;28;20072;-67
2022/08/23 12:55:47;;;;;;;5.32;4.82;;;26.90;99.90;;;;;;5006444;28;20048;-68
2022/08/23 12:58:15;;;;;;;3.25;1.73;;;26.90;99.90;;;;;;5009060;28;20049;-71
2022/08/23 13:00:53;;;;;;;4.27;3.43;;;27.00;99.90;;;;;;5014561;28;20077;-68
2022/08/23 13:03:28;;;;;;;1.48;1.10;;;27.10;99.90;;;;;;5006186;28;20042;-69
2022/08/23 13:05:59;;;;;;;2.47;1.25;;;27.20;99.90;;;;;;4998565;28;20060;-69
2022/08/23 13:08:43;;;;;;;2.35;0.85;;;27.40;99.90;;;;;;5020963;28;20042;-68
2022/08/23 13:11:11;;;;;;;2.67;1.10;;;27.40;99.90;;;;;;5025121;28;20061;-68
2022/08/23 13:13:39;;;;;;;8.10;1.65;;;27.50;99.90;;;;;;5025630;28;20069;-69
2022/08/23 13:16:22;;;;;;;1.63;0.80;;;27.60;99.90;;;;;;5003401;28;20050;-71
2022/08/23 13:18:54;;;;;;;1.08;0.65;;;27.80;99.90;;;;;;5012307;28;20085;-67
2022/08/23 13:21:21;;;;;;;3.03;0.75;;;27.90;99.90;;;;;;5025293;28;20066;-69
2022/08/23 13:24:00;;;;;;;1.35;0.80;;;27.90;99.90;;;;;;5022024;28;20061;-68
2022/08/23 13:26:40;;;;;;;6.93;1.35;;;27.90;99.90;;;;;;4998744;28;20049;-75
2022/08/23 13:29:22;;;;;;;2.90;0.82;;;27.90;99.90;;;;;;5017003;28;20052;-72
2022/08/23 13:32:00;;;;;;;58.22;52.30;;;27.80;99.90;;;;;;5032451;28;20041;-74